createdAt,value
2022-10-05T00:00:13.994Z,159.82
2022-10-05T00:02:40.775Z,149.45
2022-10-05T00:05:26.917Z,148.35
2022-10-05T00:07:56.640Z,149.95
2022-10-05T00:10:24.027Z,149.60
2022-10-05T00:12:50.913Z,146.50
2022-10-05T00:15:21.340Z,151.48
2022-10-05T00:17:48.576Z,149.13
2022-10-05T00:20:24.646Z,145.70
2022-10-05T00:22:57.465Z,148.23
2022-10-05T00:25:24.729Z,149.82
2022-10-05T00:27:58.405Z,144.95
2022-10-05T00:30:30.972Z,147.43
2022-10-05T00:32:59.814Z,146.05
2022-10-05T00:35:29.361Z,141.20
2022-10-05T00:37:56.545Z,141.20
2022-10-05T00:40:35.355Z,149.32
2022-10-05T00:43:29.100Z,143.13
2022-10-05T00:46:10.212Z,150.70
2022-10-05T00:48:52.504Z,139.77
2022-10-05T00:51:31.431Z,141.60
2022-10-05T00:54:00.951Z,136.77
2022-10-05T00:57:01.399Z,139.30
2022-10-05T00:59:40.454Z,146.93
2022-10-05T01:02:20.060Z,144.60
2022-10-05T01:05:03.782Z,147.07
2022-10-05T01:07:58.777Z,152.35
2022-10-05T01:10:43.601Z,145.43
2022-10-05T01:13:30.228Z,146.63
2022-10-05T01:16:07.151Z,136.48
2022-10-05T01:18:39.742Z,136.73
2022-10-05T01:21:17.494Z,136.27
2022-10-05T01:24:02.679Z,140.90
2022-10-05T01:26:54.009Z,135.05
2022-10-05T01:29:25.467Z,148.73
2022-10-05T01:32:18.192Z,137.35
2022-10-05T01:35:01.036Z,140.65
2022-10-05T01:37:49.015Z,143.55
2022-10-05T01:40:18.883Z,139.10
2022-10-05T01:43:16.448Z,142.32
2022-10-05T01:45:49.047Z,137.98
2022-10-05T01:48:43.336Z,133.85
2022-10-05T01:51:22.407Z,142.90
2022-10-05T01:54:07.702Z,139.93
2022-10-05T01:56:46.740Z,141.32
2022-10-05T01:59:43.514Z,135.15
2022-10-05T02:02:17.140Z,137.52
2022-10-05T02:05:06.485Z,138.55
2022-10-05T02:07:54.727Z,138.25
2022-10-05T02:10:30.995Z,146.70
2022-10-05T02:15:42.246Z,141.05
2022-10-05T02:18:16.098Z,140.30
2022-10-05T02:20:44.995Z,147.43
2022-10-05T02:23:19.067Z,149.15
2022-10-05T02:25:49.429Z,147.68
2022-10-05T02:28:32.212Z,134.65
2022-10-05T02:31:06.170Z,133.02
2022-10-05T02:33:34.819Z,146.40
2022-10-05T02:36:19.880Z,140.35
2022-10-05T02:38:54.662Z,142.13
2022-10-05T02:41:26.890Z,136.18
2022-10-05T02:43:59.444Z,138.10
2022-10-05T02:46:44.044Z,151.98
2022-10-05T02:49:43.310Z,145.25
2022-10-05T02:52:46.263Z,140.57
2022-10-05T02:55:19.996Z,148.15
2022-10-05T02:57:54.305Z,139.40
2022-10-05T03:00:26.039Z,136.45
2022-10-05T03:03:18.999Z,134.35
2022-10-05T03:06:05.235Z,145.52
2022-10-05T03:08:53.710Z,144.23
2022-10-05T03:11:34.535Z,151.60
2022-10-05T03:14:04.483Z,146.68
2022-10-05T03:16:41.820Z,144.50
2022-10-05T03:19:10.269Z,151.95
2022-10-05T03:22:00.125Z,144.35
2022-10-05T03:24:50.461Z,138.13
2022-10-05T03:27:43.874Z,137.93
2022-10-05T03:30:17.539Z,133.10
2022-10-05T03:33:03.633Z,139.13
2022-10-05T03:35:53.055Z,146.65
2022-10-05T03:38:41.816Z,145.93
2022-10-05T03:41:23.952Z,147.63
2022-10-05T03:43:53.498Z,132.93
2022-10-05T03:46:29.374Z,149.05
2022-10-05T03:49:22.202Z,139.43
2022-10-05T03:51:59.330Z,140.02
2022-10-05T03:54:32.289Z,138.93
2022-10-05T03:57:26.228Z,141.75
2022-10-05T04:00:05.544Z,132.38
2022-10-05T04:02:55.885Z,135.02
2022-10-05T04:05:29.330Z,145.30
2022-10-05T04:08:38.572Z,141.65
2022-10-05T04:11:16.083Z,130.35
2022-10-05T04:13:50.288Z,138.25
2022-10-05T04:16:25.785Z,143.10
2022-10-05T04:19:05.913Z,136.77
2022-10-05T04:21:41.391Z,148.30
2022-10-05T04:24:17.901Z,135.63
2022-10-05T04:26:54.266Z,133.10
2022-10-05T04:29:28.130Z,145.40
2022-10-05T04:31:58.832Z,143.85
2022-10-05T04:34:36.359Z,135.23
2022-10-05T04:37:08.230Z,144.50
2022-10-05T04:39:44.357Z,135.48
2022-10-05T04:42:36.412Z,139.18
2022-10-05T04:45:22.269Z,147.38
2022-10-05T04:47:57.852Z,140.52
2022-10-05T04:50:45.442Z,132.98
2022-10-05T04:53:29.145Z,145.18
2022-10-05T04:56:02.585Z,135.15
2022-10-05T04:58:49.529Z,133.63
2022-10-05T05:01:22.457Z,142.35
2022-10-05T05:04:27.133Z,135.00
2022-10-05T05:07:14.509Z,133.60
2022-10-05T05:10:18.621Z,135.95
2022-10-05T05:13:15.222Z,147.02
2022-10-05T05:16:10.909Z,141.57
2022-10-05T05:18:53.438Z,133.85
2022-10-05T05:21:48.567Z,132.60
2022-10-05T05:24:34.544Z,131.23
2022-10-05T05:27:28.468Z,136.40
2022-10-05T05:30:18.568Z,135.50
2022-10-05T05:33:08.697Z,144.32
2022-10-05T05:35:59.014Z,131.55
2022-10-05T05:38:59.396Z,141.43
2022-10-05T05:41:35.270Z,127.57
2022-10-05T05:44:23.675Z,140.13
2022-10-05T05:47:09.426Z,147.30
2022-10-05T05:49:55.026Z,143.32
2022-10-05T05:52:28.695Z,136.35
2022-10-05T05:55:06.886Z,132.93
2022-10-05T05:57:53.625Z,134.20
2022-10-05T06:00:48.443Z,136.23
2022-10-05T06:03:37.799Z,128.05
2022-10-05T06:06:09.886Z,147.90
2022-10-05T06:09:00.735Z,145.98
2022-10-05T06:11:52.247Z,134.05
2022-10-05T06:16:59.047Z,136.52
2022-10-05T06:19:28.059Z,153.48
2022-10-05T06:22:19.259Z,136.55
2022-10-05T06:25:07.882Z,137.73
2022-10-05T06:27:59.403Z,139.10
2022-10-05T06:30:43.653Z,148.77
2022-10-05T06:33:48.867Z,136.43
2022-10-05T06:36:23.403Z,141.98
2022-10-05T06:39:14.348Z,141.65
2022-10-05T06:42:03.531Z,142.45
2022-10-05T06:44:58.063Z,148.50
2022-10-05T06:47:44.874Z,150.20
2022-10-05T06:50:42.678Z,147.10
2022-10-05T06:53:42.545Z,146.20
2022-10-05T06:56:21.038Z,145.27
2022-10-05T06:59:12.531Z,154.05
2022-10-05T07:01:59.313Z,155.90
2022-10-05T07:04:36.718Z,147.77
2022-10-05T07:07:10.363Z,148.90
2022-10-05T07:09:41.412Z,148.10
2022-10-05T07:12:18.534Z,154.32
2022-10-05T07:15:20.716Z,145.82
2022-10-05T07:18:00.134Z,157.52
2022-10-05T07:20:39.798Z,149.20
2022-10-05T07:23:47.104Z,151.77
2022-10-05T07:26:22.793Z,148.43
2022-10-05T07:29:14.254Z,149.65
2022-10-05T07:31:47.115Z,153.75
2022-10-05T07:34:43.971Z,151.05
2022-10-05T07:37:38.837Z,152.20
2022-10-05T07:40:37.827Z,150.45
2022-10-05T07:43:16.192Z,145.43
2022-10-05T07:46:07.277Z,155.50
2022-10-05T07:48:37.114Z,157.40
2022-10-05T07:51:22.712Z,163.43
2022-10-05T07:54:16.226Z,172.05
2022-10-05T07:56:49.413Z,164.60
2022-10-05T08:00:02.361Z,168.70
2022-10-05T08:03:11.049Z,167.82
2022-10-05T08:05:42.513Z,162.40
2022-10-05T08:08:21.213Z,167.65
2022-10-05T08:10:56.800Z,170.85
2022-10-05T08:13:55.666Z,169.82
2022-10-05T08:16:26.537Z,163.48
2022-10-05T08:19:06.774Z,165.43
2022-10-05T08:21:41.521Z,173.65
2022-10-05T08:24:46.585Z,166.30
2022-10-05T08:27:23.567Z,178.27
2022-10-05T08:30:10.348Z,183.85
2022-10-05T08:32:50.387Z,179.88
2022-10-05T08:35:49.175Z,174.73
2022-10-05T08:38:19.913Z,181.73
2022-10-05T08:41:10.737Z,175.57
2022-10-05T08:43:55.679Z,179.60
2022-10-05T08:47:03.649Z,174.93
2022-10-05T08:49:51.596Z,179.80
2022-10-05T08:52:30.190Z,171.48
2022-10-05T08:55:25.132Z,175.32
2022-10-05T08:58:09.807Z,178.05
2022-10-05T09:00:36.324Z,180.57
2022-10-05T09:03:26.196Z,169.15
2022-10-05T09:06:04.830Z,184.55
2022-10-05T09:08:51.298Z,179.00
2022-10-05T09:14:10.261Z,176.32
2022-10-05T09:17:09.224Z,167.02
2022-10-05T09:19:54.611Z,179.93
2022-10-05T09:23:18.284Z,178.35
2022-10-05T09:25:59.247Z,168.63
2022-10-05T09:28:31.915Z,172.23
2022-10-05T09:31:19.285Z,169.48
2022-10-05T09:34:16.662Z,169.30
2022-10-05T09:37:25.088Z,179.80
2022-10-05T09:40:19.764Z,169.60
2022-10-05T09:43:08.654Z,174.95
2022-10-05T09:46:07.655Z,165.57
2022-10-05T09:48:43.406Z,167.98
2022-10-05T09:51:13.040Z,174.77
2022-10-05T09:54:01.553Z,172.80
2022-10-05T09:57:04.198Z,169.43
2022-10-05T09:59:58.421Z,166.13
2022-10-05T10:03:00.426Z,174.70
2022-10-05T10:05:51.625Z,163.82
2022-10-05T10:08:38.506Z,167.80
2022-10-05T10:11:29.566Z,166.18
2022-10-05T10:14:13.419Z,167.65
2022-10-05T10:17:29.535Z,163.13
2022-10-05T10:20:05.264Z,162.60
2022-10-05T10:23:16.856Z,166.43
2022-10-05T10:26:04.995Z,173.85
2022-10-05T10:28:48.553Z,164.63
2022-10-05T10:31:51.264Z,165.07
2022-10-05T10:34:45.301Z,164.55
2022-10-05T10:37:35.437Z,162.32
2022-10-05T10:40:02.008Z,164.48
2022-10-05T10:42:50.329Z,173.55
2022-10-05T10:45:58.867Z,169.43
2022-10-05T10:48:28.728Z,164.70
2022-10-05T10:51:19.347Z,157.88
2022-10-05T10:54:04.766Z,164.95
2022-10-05T10:57:04.438Z,171.20
2022-10-05T11:00:00.539Z,170.05
2022-10-05T11:03:11.827Z,164.75
2022-10-05T11:05:56.073Z,168.65
2022-10-05T11:09:08.246Z,163.18
2022-10-05T11:11:45.746Z,165.75
2022-10-05T11:14:31.081Z,164.13
2022-10-05T11:17:19.209Z,165.50
2022-10-05T11:20:04.162Z,167.43
2022-10-05T11:22:52.025Z,165.85
2022-10-05T11:25:37.964Z,165.65
2022-10-05T11:28:35.751Z,163.98
2022-10-05T11:31:11.496Z,164.38
2022-10-05T11:36:34.282Z,170.57
2022-10-05T11:39:28.638Z,165.63
2022-10-05T11:42:16.624Z,162.02
2022-10-05T11:45:06.210Z,169.63
2022-10-05T11:47:41.033Z,163.95
2022-10-05T11:50:35.456Z,168.57
2022-10-05T11:53:12.047Z,167.68
2022-10-05T11:56:11.000Z,164.13
2022-10-05T11:59:12.299Z,159.05
2022-10-05T12:01:50.357Z,170.95
2022-10-05T12:04:20.670Z,159.23
2022-10-05T12:07:13.862Z,162.35
2022-10-05T12:10:17.150Z,165.75
2022-10-05T12:12:47.494Z,163.02
2022-10-05T12:15:45.318Z,167.02
2022-10-05T12:18:18.425Z,169.07
2022-10-05T12:21:02.414Z,159.60
2022-10-05T12:23:37.306Z,166.27
2022-10-05T12:26:11.129Z,162.60
2022-10-05T12:28:52.160Z,164.02
2022-10-05T12:31:29.660Z,168.63
2022-10-05T12:34:12.636Z,162.43
2022-10-05T12:37:09.522Z,172.43
2022-10-05T12:39:56.550Z,162.93
2022-10-05T12:42:39.413Z,159.75
2022-10-05T12:46:02.349Z,170.50
2022-10-05T12:48:56.289Z,164.13
2022-10-05T12:51:34.700Z,162.50
2022-10-05T12:54:09.968Z,158.82
2022-10-05T12:57:07.241Z,173.02
2022-10-05T12:59:55.215Z,168.02
2022-10-05T13:02:39.061Z,164.43
2022-10-05T13:05:16.205Z,157.70
2022-10-05T13:07:52.077Z,164.25
2022-10-05T13:10:24.737Z,160.98
2022-10-05T13:13:16.153Z,161.02
2022-10-05T13:16:24.307Z,156.25
2022-10-05T13:19:11.263Z,157.73
2022-10-05T13:21:47.620Z,168.93
2022-10-05T13:24:38.216Z,166.15
2022-10-05T13:27:27.712Z,170.43
2022-10-05T13:29:57.458Z,170.50
2022-10-05T13:32:44.385Z,160.90
2022-10-05T13:35:42.283Z,157.13
2022-10-05T13:38:27.596Z,167.23
2022-10-05T13:41:30.007Z,171.70
2022-10-05T13:43:59.599Z,162.85
2022-10-05T13:46:46.612Z,170.73
2022-10-05T13:49:49.303Z,173.48
2022-10-05T13:52:43.772Z,163.55
2022-10-05T13:55:31.972Z,169.95
2022-10-05T13:58:27.751Z,164.68
2022-10-05T14:00:57.838Z,167.67
2022-10-05T14:03:34.885Z,166.35
2022-10-05T14:06:13.536Z,172.75
2022-10-05T14:08:52.801Z,172.70
2022-10-05T14:11:31.493Z,169.23
2022-10-05T14:14:26.524Z,165.30
2022-10-05T14:16:56.529Z,170.25
2022-10-05T14:19:23.608Z,163.93
2022-10-05T14:22:11.891Z,162.70
2022-10-05T14:24:52.467Z,162.30
2022-10-05T14:27:26.470Z,162.65
2022-10-05T14:29:57.948Z,169.48
2022-10-05T14:32:27.112Z,158.68
2022-10-05T14:35:05.140Z,169.93
2022-10-05T14:37:43.354Z,167.90
2022-10-05T14:40:25.218Z,172.27
2022-10-05T14:42:51.883Z,162.48
2022-10-05T14:45:25.135Z,160.90
2022-10-05T14:48:02.404Z,171.35
2022-10-05T14:50:31.555Z,167.13
2022-10-05T14:53:17.925Z,162.77
2022-10-05T14:55:50.452Z,167.77
2022-10-05T14:58:23.897Z,161.65
2022-10-05T15:01:01.086Z,159.98
2022-10-05T15:03:42.356Z,158.70
2022-10-05T15:06:21.138Z,166.60
2022-10-05T15:09:34.612Z,171.73
2022-10-05T15:12:03.218Z,168.85
2022-10-05T15:14:33.899Z,171.45
2022-10-05T15:17:13.552Z,165.60
2022-10-05T15:20:05.161Z,165.10
2022-10-05T15:22:50.242Z,170.68
2022-10-05T15:25:16.907Z,173.32
2022-10-05T15:28:03.965Z,173.60
2022-10-05T15:30:35.178Z,160.65
2022-10-05T15:33:09.002Z,167.50
2022-10-05T15:36:04.366Z,161.32
2022-10-05T15:38:42.841Z,167.32
2022-10-05T15:41:24.666Z,169.32
2022-10-05T15:44:10.892Z,164.02
2022-10-05T15:49:37.059Z,168.65
2022-10-05T15:52:32.184Z,168.57
2022-10-05T15:55:10.212Z,168.70
2022-10-05T15:57:55.583Z,172.15
2022-10-05T16:00:25.285Z,170.00
2022-10-05T16:03:02.726Z,178.65
2022-10-05T16:06:06.325Z,172.23
2022-10-05T16:08:51.264Z,170.15
2022-10-05T16:11:46.403Z,171.00
2022-10-05T16:14:35.405Z,168.23
2022-10-05T16:17:08.450Z,172.27
2022-10-05T16:19:53.358Z,167.85
2022-10-05T16:22:26.631Z,172.40
2022-10-05T16:25:05.007Z,171.32
2022-10-05T16:28:04.381Z,179.38
2022-10-05T16:30:44.440Z,173.73
2022-10-05T16:33:54.616Z,173.40
2022-10-05T16:36:55.288Z,171.77
2022-10-05T16:39:40.239Z,169.15
2022-10-05T16:42:12.950Z,170.75
2022-10-05T16:44:56.848Z,169.27
2022-10-05T16:47:58.294Z,176.55
2022-10-05T16:50:51.120Z,176.75
2022-10-05T16:53:25.179Z,178.23
2022-10-05T16:56:01.213Z,171.63
2022-10-05T16:58:46.645Z,173.95
2022-10-05T17:01:22.937Z,179.23
2022-10-05T17:04:12.219Z,170.63
2022-10-05T17:07:23.408Z,171.98
2022-10-05T17:10:11.382Z,167.30
2022-10-05T17:13:02.910Z,164.93
2022-10-05T17:15:48.982Z,166.65
2022-10-05T17:18:49.307Z,172.82
2022-10-05T17:21:25.738Z,174.70
2022-10-05T17:24:12.432Z,177.85
2022-10-05T17:26:54.836Z,169.02
2022-10-05T17:29:53.673Z,171.15
2022-10-05T17:32:23.018Z,173.40
2022-10-05T17:35:01.583Z,177.90
2022-10-05T17:37:28.086Z,179.10
2022-10-05T17:39:56.482Z,175.25
2022-10-05T17:42:29.416Z,168.27
2022-10-05T17:45:14.697Z,175.50
2022-10-05T17:48:11.132Z,172.00
2022-10-05T17:51:02.508Z,169.68
2022-10-05T17:54:02.801Z,159.73
2022-10-05T17:56:55.742Z,160.18
2022-10-05T17:59:37.794Z,157.75
2022-10-05T18:02:19.839Z,165.57
2022-10-05T18:05:02.706Z,166.38
2022-10-05T18:07:29.995Z,162.35
2022-10-05T18:10:00.901Z,162.90
2022-10-05T18:12:45.421Z,170.75
2022-10-05T18:15:44.764Z,167.05
2022-10-05T18:18:32.699Z,160.43
2022-10-05T18:21:05.221Z,182.02
2022-10-05T18:23:36.165Z,170.30
2022-10-05T18:26:20.478Z,173.90
2022-10-05T18:29:15.847Z,170.27
2022-10-05T18:31:55.310Z,175.90
2022-10-05T18:34:26.500Z,170.40
2022-10-05T18:37:19.257Z,172.73
2022-10-05T18:40:05.984Z,176.15
2022-10-05T18:42:42.108Z,168.80
2022-10-05T18:45:27.722Z,174.65
2022-10-05T18:48:15.067Z,169.93
2022-10-05T18:51:13.831Z,173.77
2022-10-05T18:54:25.931Z,174.52
2022-10-05T18:56:53.177Z,166.60
2022-10-05T18:59:35.066Z,174.50
2022-10-05T19:02:27.221Z,169.07
2022-10-05T19:05:45.821Z,169.15
2022-10-05T19:08:24.865Z,170.10
2022-10-05T19:11:02.538Z,177.57
2022-10-05T19:13:53.966Z,168.20
2022-10-05T19:16:30.391Z,163.63
2022-10-05T19:19:34.454Z,176.65
2022-10-05T19:22:14.711Z,166.43
2022-10-05T19:25:06.198Z,180.55
2022-10-05T19:27:44.871Z,166.27
2022-10-05T19:30:24.115Z,167.25
2022-10-05T19:32:56.820Z,166.30
2022-10-05T19:35:33.725Z,169.93
2022-10-05T19:38:20.330Z,166.25
2022-10-05T19:41:16.208Z,167.43
2022-10-05T19:44:16.193Z,172.52
2022-10-05T19:47:09.433Z,170.45
2022-10-05T19:49:37.360Z,174.95
2022-10-05T19:52:11.029Z,171.63
2022-10-05T19:54:37.716Z,178.73
2022-10-05T19:57:17.105Z,166.70
2022-10-05T19:59:48.360Z,170.93
2022-10-05T20:02:17.159Z,177.07
2022-10-05T20:04:49.497Z,171.10
2022-10-05T20:07:21.788Z,170.60
2022-10-05T20:09:53.102Z,178.27
2022-10-05T20:12:23.019Z,174.75
2022-10-05T20:15:27.859Z,177.65
2022-10-05T20:18:13.127Z,169.43
2022-10-05T20:20:47.067Z,167.13
2022-10-05T20:23:21.598Z,176.57
2022-10-05T20:26:08.331Z,171.27
2022-10-05T20:28:35.061Z,161.18
2022-10-05T20:31:01.826Z,171.73
2022-10-05T20:33:29.294Z,174.30
2022-10-05T20:35:56.196Z,166.07
2022-10-05T20:38:22.979Z,171.02
2022-10-05T20:40:49.745Z,164.43
2022-10-05T20:43:16.641Z,165.95
2022-10-05T20:45:43.756Z,174.55
2022-10-05T20:48:11.564Z,168.60
2022-10-05T20:50:38.862Z,168.77
2022-10-05T20:53:10.973Z,163.80
2022-10-05T20:55:38.442Z,163.65
2022-10-05T20:58:05.109Z,161.40
2022-10-05T21:00:51.673Z,177.50
2022-10-05T21:05:46.657Z,170.38
2022-10-05T21:08:14.059Z,177.82
2022-10-05T21:10:40.788Z,162.43
2022-10-05T21:13:07.418Z,168.45
2022-10-05T21:15:34.133Z,159.68
2022-10-05T21:18:00.715Z,164.63
2022-10-05T21:20:27.375Z,160.98
2022-10-05T21:22:53.951Z,167.30
2022-10-05T21:25:20.527Z,167.65
2022-10-05T21:27:48.650Z,169.30
2022-10-05T21:30:15.500Z,169.52
2022-10-05T21:32:44.636Z,160.45
2022-10-05T21:35:11.545Z,156.55
2022-10-05T21:37:38.271Z,166.27
2022-10-05T21:40:05.284Z,168.30
2022-10-05T21:42:32.072Z,159.98
2022-10-05T21:44:58.700Z,153.88
2022-10-05T21:47:25.974Z,153.50
2022-10-05T21:49:52.855Z,154.63
2022-10-05T21:52:20.343Z,150.95
2022-10-05T21:54:47.072Z,167.38
2022-10-05T21:57:14.703Z,153.45
2022-10-05T21:59:42.985Z,161.10
2022-10-05T22:02:09.607Z,149.48
2022-10-05T22:04:36.228Z,147.88
2022-10-05T22:07:10.537Z,159.23
2022-10-05T22:09:37.169Z,160.57
2022-10-05T22:12:03.865Z,160.65
2022-10-05T22:14:30.483Z,157.27
2022-10-05T22:16:57.109Z,160.15
2022-10-05T22:19:23.763Z,149.15
2022-10-05T22:21:50.509Z,160.20
2022-10-05T22:24:17.152Z,153.98
2022-10-05T22:26:46.580Z,153.23
2022-10-05T22:29:16.025Z,157.13
2022-10-05T22:31:42.995Z,150.82
2022-10-05T22:34:09.575Z,150.52
2022-10-05T22:36:37.292Z,147.32
2022-10-05T22:39:04.217Z,163.57
2022-10-05T22:41:30.828Z,162.40
2022-10-05T22:43:57.464Z,149.15
2022-10-05T22:46:24.128Z,148.85
2022-10-05T22:48:50.794Z,154.38
2022-10-05T22:51:17.415Z,147.30
2022-10-05T22:53:44.004Z,148.43
2022-10-05T22:56:13.475Z,148.93
2022-10-05T22:58:41.223Z,154.98
2022-10-05T23:01:11.154Z,152.88
2022-10-05T23:03:38.261Z,153.60
2022-10-05T23:06:13.240Z,157.82
2022-10-05T23:08:41.030Z,153.05
2022-10-05T23:11:18.949Z,159.70
2022-10-05T23:13:45.622Z,153.57
2022-10-05T23:16:18.364Z,151.25
2022-10-05T23:18:48.674Z,152.00
2022-10-05T23:21:15.690Z,151.35
2022-10-05T23:23:48.988Z,164.02
2022-10-05T23:26:17.516Z,153.73
2022-10-05T23:28:48.040Z,153.77
2022-10-05T23:31:17.542Z,160.82
2022-10-05T23:33:44.459Z,161.20
2022-10-05T23:36:17.089Z,162.52
2022-10-05T23:38:44.493Z,157.02
2022-10-05T23:41:11.481Z,152.82
2022-10-05T23:43:38.173Z,150.57
2022-10-05T23:46:07.182Z,149.80
2022-10-05T23:48:37.949Z,150.80
2022-10-05T23:51:09.861Z,160.27
2022-10-05T23:53:37.023Z,160.85
2022-10-05T23:56:04.512Z,161.57
2022-10-05T23:58:31.554Z,156.32
